createdAt,value
2022-12-17T00:02:44.151Z,5.68
2022-12-17T00:05:49.989Z,4.70
2022-12-17T00:09:03.317Z,6.43
2022-12-17T00:12:07.437Z,4.38
2022-12-17T00:15:17.941Z,5.28
2022-12-17T00:18:39.391Z,5.45
2022-12-17T00:28:10.125Z,6.13
2022-12-17T00:31:29.760Z,5.70
2022-12-17T00:41:12.559Z,4.90
2022-12-17T00:44:13.505Z,4.43
2022-12-17T00:50:31.073Z,6.47
2022-12-17T00:53:40.310Z,6.28
2022-12-17T00:56:32.922Z,4.05
2022-12-17T00:59:35.475Z,4.45
2022-12-17T01:02:51.991Z,5.78
2022-12-17T01:05:46.783Z,5.25
2022-12-17T01:08:47.228Z,5.63
2022-12-17T01:12:00.149Z,5.50
2022-12-17T01:15:13.489Z,5.38
2022-12-17T01:21:27.849Z,4.72
2022-12-17T01:24:26.549Z,5.15
2022-12-17T01:31:12.170Z,4.60
2022-12-17T01:37:10.250Z,4.70
2022-12-17T01:40:08.878Z,5.57
2022-12-17T01:43:47.472Z,4.65
2022-12-17T01:47:06.181Z,5.03
2022-12-17T01:50:16.927Z,3.85
2022-12-17T01:53:23.728Z,5.45
2022-12-17T01:56:19.370Z,5.75
2022-12-17T01:59:20.269Z,4.80
2022-12-17T02:02:12.000Z,5.43
2022-12-17T02:05:41.918Z,4.60
2022-12-17T02:09:47.717Z,5.18
2022-12-17T02:12:57.310Z,4.60
2022-12-17T02:16:06.416Z,5.20
2022-12-17T02:19:40.999Z,3.10
2022-12-17T02:23:09.443Z,4.72
2022-12-17T02:26:43.793Z,3.60
2022-12-17T02:29:43.003Z,3.60
2022-12-17T02:32:44.333Z,4.30
2022-12-17T02:42:22.721Z,3.50
2022-12-17T02:45:34.596Z,3.95
2022-12-17T02:48:32.295Z,3.85
2022-12-17T02:51:48.654Z,3.03
2022-12-17T02:55:00.478Z,3.53
2022-12-17T02:58:10.619Z,4.25
2022-12-17T03:01:12.143Z,4.95
2022-12-17T03:04:04.755Z,6.00
2022-12-17T03:07:06.932Z,4.88
2022-12-17T03:10:00.983Z,4.25
2022-12-17T03:13:09.254Z,3.95
2022-12-17T03:16:12.934Z,4.05
2022-12-17T03:23:03.009Z,3.50
2022-12-17T03:25:56.947Z,5.15
2022-12-17T03:29:00.151Z,4.82
2022-12-17T03:32:00.835Z,4.55
2022-12-17T03:35:14.074Z,6.70
2022-12-17T03:38:09.060Z,4.55
2022-12-17T03:41:12.144Z,5.97
2022-12-17T03:44:30.441Z,4.45
2022-12-17T03:47:37.784Z,4.68
2022-12-17T03:50:41.261Z,4.55
2022-12-17T03:53:39.425Z,3.90
2022-12-17T03:56:27.651Z,4.20
2022-12-17T04:02:40.398Z,3.75
2022-12-17T04:05:38.998Z,3.72
2022-12-17T04:08:41.298Z,4.40
2022-12-17T04:11:52.332Z,3.72
2022-12-17T04:15:02.334Z,3.22
2022-12-17T04:24:30.863Z,5.13
2022-12-17T04:27:49.001Z,2.75
2022-12-17T04:31:19.027Z,4.07
2022-12-17T04:34:19.371Z,3.03
2022-12-17T04:37:22.075Z,5.32
2022-12-17T04:40:23.954Z,4.72
2022-12-17T04:43:59.580Z,3.38
2022-12-17T04:50:11.978Z,4.00
2022-12-17T04:56:35.278Z,2.30
2022-12-17T04:59:29.849Z,2.92
2022-12-17T05:02:32.033Z,3.47
2022-12-17T05:05:26.027Z,3.67
2022-12-17T05:08:26.634Z,3.53
2022-12-17T05:11:32.657Z,3.85
2022-12-17T05:14:34.058Z,2.75
2022-12-17T05:17:35.867Z,2.55
2022-12-17T05:20:30.360Z,3.70
2022-12-17T05:23:37.414Z,3.78
2022-12-17T05:26:57.112Z,2.75
2022-12-17T05:30:14.807Z,3.90
2022-12-17T05:33:35.648Z,3.38
2022-12-17T05:36:36.079Z,3.38
2022-12-17T05:39:30.926Z,4.28
2022-12-17T05:42:22.727Z,4.47
2022-12-17T05:51:25.061Z,2.63
2022-12-17T05:54:26.594Z,3.03
2022-12-17T05:57:23.622Z,2.78
2022-12-17T06:03:45.160Z,3.22
2022-12-17T06:06:55.541Z,2.88
2022-12-17T06:09:58.761Z,2.90
2022-12-17T06:13:25.087Z,2.95
2022-12-17T06:16:33.731Z,2.58
2022-12-17T06:19:36.754Z,2.00
2022-12-17T06:22:46.693Z,2.22
2022-12-17T06:28:45.573Z,1.88
2022-12-17T06:31:36.192Z,1.55
2022-12-17T06:34:34.711Z,1.83
2022-12-17T06:37:42.322Z,3.00
2022-12-17T06:40:32.852Z,2.83
2022-12-17T06:43:47.496Z,2.17
2022-12-17T06:46:43.968Z,2.70
2022-12-17T06:49:42.184Z,2.83
2022-12-17T06:52:53.666Z,3.58
2022-12-17T06:55:50.805Z,3.50
2022-12-17T06:58:57.690Z,4.03
2022-12-17T07:01:53.663Z,4.03
2022-12-17T07:05:23.646Z,3.67
2022-12-17T07:08:31.979Z,3.53
2022-12-17T07:11:32.459Z,5.57
2022-12-17T07:14:30.742Z,5.03
2022-12-17T07:17:33.971Z,3.92
2022-12-17T07:20:25.290Z,3.17
2022-12-17T07:23:49.880Z,4.35
2022-12-17T07:26:43.987Z,4.68
2022-12-17T07:29:40.683Z,3.95
2022-12-17T07:32:45.980Z,4.93
2022-12-17T07:35:45.627Z,4.22
2022-12-17T07:38:34.703Z,4.30
2022-12-17T07:41:34.520Z,3.60
2022-12-17T07:44:34.128Z,4.47
2022-12-17T07:47:37.971Z,4.28
2022-12-17T07:50:48.926Z,7.70
2022-12-17T07:57:27.696Z,9.85
2022-12-17T08:00:18.219Z,6.15
2022-12-17T08:03:08.664Z,6.00
2022-12-17T08:06:03.152Z,5.00
2022-12-17T08:12:32.604Z,5.40
2022-12-17T08:15:33.990Z,4.93
2022-12-17T08:18:27.160Z,5.55
2022-12-17T08:21:28.227Z,6.75
2022-12-17T08:24:22.129Z,6.10
2022-12-17T08:27:42.927Z,8.52
2022-12-17T08:30:32.346Z,4.88
2022-12-17T08:33:29.574Z,7.28
2022-12-17T08:36:29.883Z,5.90
2022-12-17T08:39:28.156Z,7.53
2022-12-17T08:42:27.968Z,5.65
2022-12-17T08:45:18.510Z,7.57
2022-12-17T08:48:27.780Z,6.10
2022-12-17T08:51:32.988Z,4.63
2022-12-17T08:54:28.616Z,5.38
2022-12-17T08:57:31.861Z,4.25
2022-12-17T09:00:41.063Z,4.38
2022-12-17T09:03:48.559Z,5.70
2022-12-17T09:06:42.747Z,4.70
2022-12-17T09:09:59.114Z,4.40
2022-12-17T09:13:04.431Z,3.50
2022-12-17T09:16:15.546Z,3.45
2022-12-17T09:25:47.839Z,3.65
2022-12-17T09:32:26.142Z,4.00
2022-12-17T09:35:17.809Z,3.17
2022-12-17T09:38:23.935Z,4.47
2022-12-17T09:41:46.144Z,4.05
2022-12-17T09:49:09.525Z,4.95
2022-12-17T09:52:06.284Z,4.10
2022-12-17T09:55:26.944Z,5.72
2022-12-17T09:58:25.279Z,5.07
2022-12-17T10:01:46.124Z,6.87
2022-12-17T10:05:13.659Z,7.45
2022-12-17T10:08:13.843Z,5.30
2022-12-17T10:11:14.923Z,6.82
2022-12-17T10:14:12.989Z,5.75
2022-12-17T10:17:41.477Z,4.10
2022-12-17T10:21:28.095Z,5.72
2022-12-17T10:24:41.579Z,6.70
2022-12-17T10:27:40.690Z,7.90
2022-12-17T10:34:33.997Z,7.78
2022-12-17T10:38:13.295Z,6.95
2022-12-17T10:41:08.465Z,7.55
2022-12-17T10:44:06.299Z,6.57
2022-12-17T10:47:30.095Z,8.50
2022-12-17T10:50:49.914Z,6.18
2022-12-17T10:53:52.497Z,6.90
2022-12-17T10:57:39.230Z,7.85
2022-12-17T11:01:03.468Z,6.22
2022-12-17T11:04:13.077Z,7.10
2022-12-17T11:07:16.264Z,6.13
2022-12-17T11:10:28.629Z,8.68
2022-12-17T11:13:31.872Z,7.57
2022-12-17T11:16:37.340Z,7.43
2022-12-17T11:19:44.830Z,8.05
2022-12-17T11:23:34.340Z,8.02
2022-12-17T11:27:04.232Z,7.68
2022-12-17T11:30:06.345Z,7.80
2022-12-17T11:33:43.736Z,8.15
2022-12-17T11:37:11.889Z,5.82
2022-12-17T11:41:18.556Z,6.55
2022-12-17T11:44:53.575Z,8.27
2022-12-17T11:48:41.804Z,6.30
2022-12-17T11:53:16.132Z,5.72
2022-12-17T12:00:29.407Z,10.77
2022-12-17T12:04:09.576Z,8.57
2022-12-17T12:12:39.878Z,9.88
2022-12-17T12:16:13.530Z,8.18
2022-12-17T12:19:34.333Z,10.68
2022-12-17T12:26:36.982Z,9.32
2022-12-17T12:30:13.876Z,11.27
2022-12-17T12:33:29.209Z,10.60
2022-12-17T12:40:16.695Z,12.13
2022-12-17T12:43:20.875Z,8.75
2022-12-17T12:46:45.860Z,13.02
2022-12-17T12:50:02.353Z,11.25
2022-12-17T12:53:06.567Z,10.90
2022-12-17T12:56:08.373Z,10.20
2022-12-17T13:05:43.357Z,8.73
2022-12-17T13:08:42.025Z,9.52
2022-12-17T13:11:45.537Z,10.45
2022-12-17T13:14:54.577Z,9.27
2022-12-17T13:17:51.194Z,10.03
2022-12-17T13:20:58.837Z,8.88
2022-12-17T13:23:40.041Z,7.95
2022-12-17T13:26:47.791Z,10.48
2022-12-17T13:29:50.065Z,7.15
2022-12-17T13:33:16.058Z,8.80
2022-12-17T13:36:33.767Z,8.25
2022-12-17T13:39:37.555Z,9.05
2022-12-17T13:42:54.988Z,8.55
2022-12-17T13:47:21.383Z,6.53
2022-12-17T13:49:11.466Z,7.22
2022-12-17T13:52:45.293Z,8.82
2022-12-17T13:55:39.630Z,6.60
2022-12-17T13:58:51.251Z,8.95
2022-12-17T14:01:45.108Z,10.70
2022-12-17T14:04:41.771Z,7.97
2022-12-17T14:07:28.941Z,7.50
2022-12-17T14:10:22.922Z,9.73
2022-12-17T14:13:17.711Z,10.88
2022-12-17T14:16:05.162Z,7.40
2022-12-17T14:19:03.049Z,9.27
2022-12-17T14:21:40.163Z,6.43
2022-12-17T14:28:04.150Z,9.70
2022-12-17T14:31:26.791Z,7.28
2022-12-17T14:34:18.606Z,6.43
2022-12-17T14:37:33.028Z,6.95
2022-12-17T14:40:21.385Z,6.40
2022-12-17T14:43:27.296Z,6.47
2022-12-17T14:46:43.232Z,8.73
2022-12-17T14:49:29.079Z,8.00
2022-12-17T14:52:25.274Z,8.45
2022-12-17T14:57:36.170Z,9.05
2022-12-17T15:00:09.264Z,9.15
2022-12-17T15:02:38.428Z,6.97
2022-12-17T15:05:05.908Z,8.48
2022-12-17T15:07:33.469Z,7.93
2022-12-17T15:10:00.354Z,9.95
2022-12-17T15:12:28.096Z,7.30
2022-12-17T15:14:54.884Z,10.60
2022-12-17T15:17:21.959Z,9.48
2022-12-17T15:19:54.244Z,8.52
2022-12-17T15:22:23.268Z,8.20
2022-12-17T15:24:50.138Z,9.68
2022-12-17T15:27:18.718Z,7.43
2022-12-17T15:29:46.407Z,7.18
2022-12-17T15:32:24.544Z,8.20
2022-12-17T15:34:52.104Z,8.20
2022-12-17T15:37:25.336Z,7.97
2022-12-17T15:39:53.769Z,9.07
2022-12-17T15:42:39.911Z,8.48
2022-12-17T15:45:08.153Z,8.65
2022-12-17T15:47:35.590Z,7.45
2022-12-17T15:52:31.043Z,7.68
2022-12-17T15:54:59.088Z,8.20
2022-12-17T15:57:26.956Z,7.15
2022-12-17T15:59:54.575Z,7.88
2022-12-17T16:02:22.153Z,7.13
2022-12-17T16:04:49.896Z,7.70
2022-12-17T16:07:17.172Z,8.13
2022-12-17T16:09:45.160Z,6.32
2022-12-17T16:12:12.236Z,7.78
2022-12-17T16:14:39.860Z,6.72
2022-12-17T16:17:07.017Z,7.70
2022-12-17T16:19:34.076Z,7.75
2022-12-17T16:22:01.646Z,7.63
2022-12-17T16:27:00.808Z,7.15
2022-12-17T16:29:32.798Z,7.68
2022-12-17T16:32:00.993Z,7.75
2022-12-17T16:34:29.607Z,7.35
2022-12-17T16:36:57.387Z,8.80
2022-12-17T16:39:24.613Z,7.25
2022-12-17T16:41:51.847Z,8.50
2022-12-17T16:44:19.200Z,6.13
2022-12-17T16:49:23.646Z,6.63
2022-12-17T16:51:53.077Z,7.03
2022-12-17T16:54:26.829Z,7.72
2022-12-17T16:56:55.078Z,10.85
2022-12-17T16:59:23.783Z,8.82
2022-12-17T17:01:53.143Z,13.60
2022-12-17T17:04:23.568Z,7.97
2022-12-17T17:06:56.755Z,11.57
2022-12-17T17:09:25.570Z,10.38
2022-12-17T17:11:56.816Z,8.98
2022-12-17T17:14:24.256Z,9.02
2022-12-17T17:19:20.924Z,5.65
2022-12-17T17:21:55.034Z,7.93
2022-12-17T17:24:26.036Z,6.47
2022-12-17T17:26:54.625Z,8.88
2022-12-17T17:29:22.311Z,8.93
2022-12-17T17:34:37.311Z,7.68
2022-12-17T17:37:04.210Z,7.10
2022-12-17T17:39:33.278Z,8.68
2022-12-17T17:42:00.943Z,9.18
2022-12-17T17:44:27.875Z,8.10
2022-12-17T17:46:54.710Z,10.10
2022-12-17T17:49:22.330Z,7.63
2022-12-17T17:52:08.991Z,6.68
2022-12-17T17:54:36.392Z,7.18
2022-12-17T17:57:03.184Z,6.70
2022-12-17T17:59:33.751Z,9.30
2022-12-17T18:02:03.151Z,7.68
2022-12-17T18:04:30.942Z,6.57
2022-12-17T18:09:45.859Z,6.53
2022-12-17T18:15:16.188Z,6.38
2022-12-17T18:17:47.627Z,5.00
2022-12-17T18:20:16.061Z,5.63
2022-12-17T18:22:46.775Z,6.82
2022-12-17T18:25:16.365Z,8.48
2022-12-17T18:27:44.237Z,6.82
2022-12-17T18:30:12.725Z,8.88
2022-12-17T18:32:40.035Z,8.07
2022-12-17T18:35:07.911Z,9.15
2022-12-17T18:37:35.356Z,8.38
2022-12-17T18:42:48.401Z,9.43
2022-12-17T18:45:16.499Z,8.63
2022-12-17T18:47:45.159Z,7.80
2022-12-17T18:50:13.195Z,8.88
2022-12-17T18:52:40.283Z,9.40
2022-12-17T18:55:09.281Z,5.80
2022-12-17T18:57:36.670Z,8.13
2022-12-17T19:00:05.418Z,7.00
2022-12-17T19:02:32.519Z,8.30
2022-12-17T19:05:00.368Z,7.25
2022-12-17T19:07:27.703Z,7.50
2022-12-17T19:09:55.299Z,10.57
2022-12-17T19:12:22.891Z,10.45
2022-12-17T19:14:50.487Z,8.90
2022-12-17T19:17:18.035Z,9.85
2022-12-17T19:19:45.493Z,8.55
2022-12-17T19:24:40.363Z,8.20
2022-12-17T19:27:07.838Z,5.93
2022-12-17T19:32:03.423Z,8.73
2022-12-17T19:34:31.817Z,7.72
2022-12-17T19:36:59.340Z,9.73
2022-12-17T19:39:27.079Z,9.98
2022-12-17T19:41:54.351Z,6.95
2022-12-17T19:44:22.001Z,8.70
2022-12-17T19:46:50.374Z,10.25
2022-12-17T19:49:18.663Z,9.75
2022-12-17T19:51:46.318Z,7.85
2022-12-17T19:54:17.814Z,7.57
2022-12-17T19:56:46.357Z,7.78
2022-12-17T19:59:14.450Z,8.73
2022-12-17T20:01:46.633Z,15.38
2022-12-17T20:04:17.134Z,12.38
2022-12-17T20:06:46.470Z,11.80
2022-12-17T20:09:15.412Z,10.15
2022-12-17T20:11:43.099Z,10.30
2022-12-17T20:14:16.593Z,10.38
2022-12-17T20:16:56.024Z,8.77
2022-12-17T20:19:27.727Z,7.30
2022-12-17T20:21:56.087Z,8.43
2022-12-17T20:24:30.795Z,10.43
2022-12-17T20:27:00.350Z,9.68
2022-12-17T20:29:28.375Z,8.38
2022-12-17T20:31:56.369Z,8.88
2022-12-17T20:34:25.241Z,10.32
2022-12-17T20:36:53.766Z,8.00
2022-12-17T20:39:26.686Z,9.02
2022-12-17T20:41:55.307Z,10.63
2022-12-17T20:44:23.147Z,7.85
2022-12-17T20:46:50.811Z,7.60
2022-12-17T20:49:18.368Z,7.85
2022-12-17T20:51:45.868Z,8.07
2022-12-17T20:56:41.128Z,7.20
2022-12-17T20:59:14.908Z,9.20
2022-12-17T21:01:42.274Z,8.20
2022-12-17T21:04:11.002Z,8.88
2022-12-17T21:06:46.919Z,8.52
2022-12-17T21:09:16.269Z,10.82
2022-12-17T21:11:43.331Z,8.55
2022-12-17T21:14:15.413Z,8.75
2022-12-17T21:16:44.209Z,9.98
2022-12-17T21:19:18.861Z,11.23
2022-12-17T21:21:46.786Z,11.55
2022-12-17T21:24:14.297Z,10.32
2022-12-17T21:29:12.330Z,9.05
2022-12-17T21:31:44.399Z,8.90
2022-12-17T21:34:17.316Z,11.55
2022-12-17T21:36:45.091Z,8.98
2022-12-17T21:39:14.923Z,8.85
2022-12-17T21:42:07.905Z,8.77
2022-12-17T21:44:36.712Z,9.60
2022-12-17T21:47:04.634Z,8.75
2022-12-17T21:49:32.530Z,11.05
2022-12-17T21:52:00.979Z,7.75
2022-12-17T21:54:28.317Z,8.13
2022-12-17T21:56:55.659Z,6.57
2022-12-17T22:01:50.904Z,7.57
2022-12-17T22:04:18.647Z,7.75
2022-12-17T22:06:47.827Z,8.15
2022-12-17T22:09:27.063Z,6.63
2022-12-17T22:12:28.213Z,6.20
2022-12-17T22:14:55.559Z,8.48
2022-12-17T22:17:23.565Z,7.25
2022-12-17T22:19:50.941Z,7.25
2022-12-17T22:24:45.076Z,6.13
2022-12-17T22:27:12.262Z,7.90
2022-12-17T22:29:57.977Z,7.70
2022-12-17T22:32:43.759Z,6.75
2022-12-17T22:37:09.072Z,7.55
2022-12-17T22:40:21.582Z,8.13
2022-12-17T22:44:17.689Z,7.45
2022-12-17T22:44:36.510Z,8.63
2022-12-17T22:46:22.908Z,7.95
2022-12-17T22:48:50.158Z,7.72
2022-12-17T22:51:24.017Z,6.78
2022-12-17T22:53:55.294Z,6.22
2022-12-17T22:57:16.979Z,8.88
2022-12-17T22:59:17.528Z,7.32
2022-12-17T23:01:45.700Z,5.60
2022-12-17T23:04:16.406Z,8.10
2022-12-17T23:06:45.983Z,6.55
2022-12-17T23:09:19.108Z,6.70
2022-12-17T23:11:48.800Z,6.05
2022-12-17T23:14:17.636Z,6.45
2022-12-17T23:16:45.182Z,7.32
2022-12-17T23:19:12.914Z,7.35
2022-12-17T23:21:40.262Z,6.45
2022-12-17T23:26:37.296Z,5.40
2022-12-17T23:29:17.647Z,6.53
2022-12-17T23:31:47.773Z,7.38
2022-12-17T23:34:15.696Z,8.85
2022-12-17T23:36:43.720Z,6.75
2022-12-17T23:39:11.404Z,8.98
2022-12-17T23:41:38.967Z,8.20
2022-12-17T23:44:06.175Z,8.88
2022-12-17T23:46:33.382Z,9.07
2022-12-17T23:49:00.650Z,12.57
2022-12-17T23:51:28.672Z,7.22
2022-12-17T23:53:56.261Z,8.48
2022-12-17T23:56:27.592Z,7.50
2022-12-17T23:59:01.042Z,8.27
